Bridgehampton, New York
Current Conditions -  °F | °C
As of 9:19 AM on Tuesday 27 Jan 2015 (Local Time) from KFOK Reporting Station
Haze Haze  
Wind Chill: -14°   Ceiling: 1600
Heat Index: -6°   Visibility: 0.75mi
Dew Point: -8°   Wind: 18mph
Humidity: 85%   Direction: 360°N
Pressure: 29.57"   Gusts: 31mph
Location:  40.94°N, 72.3°W
Report Text: KFOK 271419Z 36016G27KT 3/4SM BR VV016 M06/M08 A2957 RMK AO2 PK WND 34032/1357 T10611083 PWINO FZRANO $
Loading
Personal Weather Stations






























Interactive Weather Map New forecast layout! Learn more

10-Day Weather Forecast

Advertisements
Track Severe Weather on mobile